sensor_id;sensor_type;location;lat;lon;timestamp;temperature;humidity
12977;DHT22;6553;48.412;9.514;2022-11-15T00:01:26;17.60;78.30
12977;DHT22;6553;48.412;9.514;2022-11-15T00:04:10;17.60;78.30
12977;DHT22;6553;48.412;9.514;2022-11-15T00:06:54;17.60;78.30
12977;DHT22;6553;48.412;9.514;2022-11-15T00:09:39;17.60;78.30
12977;DHT22;6553;48.412;9.514;2022-11-15T00:12:23;17.60;78.20
12977;DHT22;6553;48.412;9.514;2022-11-15T00:15:07;17.60;78.20
12977;DHT22;6553;48.412;9.514;2022-11-15T00:17:52;17.60;78.20
12977;DHT22;6553;48.412;9.514;2022-11-15T00:20:36;17.60;78.10
12977;DHT22;6553;48.412;9.514;2022-11-15T00:23:20;17.60;78.30
12977;DHT22;6553;48.412;9.514;2022-11-15T00:26:05;17.60;78.40
12977;DHT22;6553;48.412;9.514;2022-11-15T00:28:52;17.60;78.40
12977;DHT22;6553;48.412;9.514;2022-11-15T00:31:36;17.60;78.40
12977;DHT22;6553;48.412;9.514;2022-11-15T00:34:20;17.60;78.30
12977;DHT22;6553;48.412;9.514;2022-11-15T00:37:06;17.60;78.30
12977;DHT22;6553;48.412;9.514;2022-11-15T00:39:50;17.60;78.40
12977;DHT22;6553;48.412;9.514;2022-11-15T00:42:35;17.60;78.30
12977;DHT22;6553;48.412;9.514;2022-11-15T00:45:19;17.60;78.30
12977;DHT22;6553;48.412;9.514;2022-11-15T00:48:03;17.60;78.20
12977;DHT22;6553;48.412;9.514;2022-11-15T00:50:48;17.60;78.20
12977;DHT22;6553;48.412;9.514;2022-11-15T00:53:33;17.60;78.40
12977;DHT22;6553;48.412;9.514;2022-11-15T00:56:17;17.60;78.30
12977;DHT22;6553;48.412;9.514;2022-11-15T00:59:01;17.60;78.30
12977;DHT22;6553;48.412;9.514;2022-11-15T01:01:46;17.60;78.30
12977;DHT22;6553;48.412;9.514;2022-11-15T01:04:30;17.60;78.20
12977;DHT22;6553;48.412;9.514;2022-11-15T01:07:14;17.60;78.30
12977;DHT22;6553;48.412;9.514;2022-11-15T01:09:58;17.60;78.30
12977;DHT22;6553;48.412;9.514;2022-11-15T01:12:42;17.60;78.30
12977;DHT22;6553;48.412;9.514;2022-11-15T01:15:27;17.60;78.10
12977;DHT22;6553;48.412;9.514;2022-11-15T01:18:11;17.60;78.10
12977;DHT22;6553;48.412;9.514;2022-11-15T01:20:55;17.60;78.10
12977;DHT22;6553;48.412;9.514;2022-11-15T01:23:40;17.60;78.10
12977;DHT22;6553;48.412;9.514;2022-11-15T01:26:24;17.60;78.20
12977;DHT22;6553;48.412;9.514;2022-11-15T01:29:09;17.60;78.30
12977;DHT22;6553;48.412;9.514;2022-11-15T01:31:53;17.60;78.20
12977;DHT22;6553;48.412;9.514;2022-11-15T01:34:38;17.60;78.10
12977;DHT22;6553;48.412;9.514;2022-11-15T01:37:22;17.60;78.20
12977;DHT22;6553;48.412;9.514;2022-11-15T01:40:07;17.60;78.20
12977;DHT22;6553;48.412;9.514;2022-11-15T01:42:51;17.60;78.20
12977;DHT22;6553;48.412;9.514;2022-11-15T01:45:36;17.60;78.10
12977;DHT22;6553;48.412;9.514;2022-11-15T01:48:22;17.60;78.10
12977;DHT22;6553;48.412;9.514;2022-11-15T01:51:13;17.60;78.10
12977;DHT22;6553;48.412;9.514;2022-11-15T01:54:05;17.60;78.10
12977;DHT22;6553;48.412;9.514;2022-11-15T01:57:01;17.60;78.10
12977;DHT22;6553;48.412;9.514;2022-11-15T01:59:50;17.60;78.10
12977;DHT22;6553;48.412;9.514;2022-11-15T02:02:36;17.60;78.10
12977;DHT22;6553;48.412;9.514;2022-11-15T02:05:21;17.60;78.10
12977;DHT22;6553;48.412;9.514;2022-11-15T02:08:06;17.60;78.10
12977;DHT22;6553;48.412;9.514;2022-11-15T02:10:51;17.60;78.10
12977;DHT22;6553;48.412;9.514;2022-11-15T02:13:36;17.60;78.10
12977;DHT22;6553;48.412;9.514;2022-11-15T02:19:26;17.60;78.00
12977;DHT22;6553;48.412;9.514;2022-11-15T02:25:57;17.60;78.10
12977;DHT22;6553;48.412;9.514;2022-11-15T02:29:05;17.60;78.00
12977;DHT22;6553;48.412;9.514;2022-11-15T02:32:04;17.60;78.10
12977;DHT22;6553;48.412;9.514;2022-11-15T02:38:26;17.50;77.70
12977;DHT22;6553;48.412;9.514;2022-11-15T02:41:22;17.60;77.90
12977;DHT22;6553;48.412;9.514;2022-11-15T02:44:30;17.60;77.90
12977;DHT22;6553;48.412;9.514;2022-11-15T02:47:19;17.50;77.70
12977;DHT22;6553;48.412;9.514;2022-11-15T02:50:11;17.50;77.70
12977;DHT22;6553;48.412;9.514;2022-11-15T02:52:59;17.50;77.90
12977;DHT22;6553;48.412;9.514;2022-11-15T02:55:47;17.60;77.80
12977;DHT22;6553;48.412;9.514;2022-11-15T03:08:32;17.50;77.60
12977;DHT22;6553;48.412;9.514;2022-11-15T03:11:40;17.60;77.70
12977;DHT22;6553;48.412;9.514;2022-11-15T03:14:56;17.50;77.70
12977;DHT22;6553;48.412;9.514;2022-11-15T03:18:17;17.50;77.50
12977;DHT22;6553;48.412;9.514;2022-11-15T03:21:07;17.50;77.50
12977;DHT22;6553;48.412;9.514;2022-11-15T03:23:54;17.50;77.50
12977;DHT22;6553;48.412;9.514;2022-11-15T03:26:44;17.50;77.60
12977;DHT22;6553;48.412;9.514;2022-11-15T03:29:35;17.50;77.50
12977;DHT22;6553;48.412;9.514;2022-11-15T03:32:30;17.50;77.50
12977;DHT22;6553;48.412;9.514;2022-11-15T03:35:21;17.50;77.70
12977;DHT22;6553;48.412;9.514;2022-11-15T03:38:24;17.50;77.50
12977;DHT22;6553;48.412;9.514;2022-11-15T03:41:24;17.50;77.40
12977;DHT22;6553;48.412;9.514;2022-11-15T03:47:31;17.50;77.60
12977;DHT22;6553;48.412;9.514;2022-11-15T03:50:20;17.50;77.40
12977;DHT22;6553;48.412;9.514;2022-11-15T03:53:07;17.50;77.50
12977;DHT22;6553;48.412;9.514;2022-11-15T03:55:52;17.50;77.50
12977;DHT22;6553;48.412;9.514;2022-11-15T03:58:36;17.50;77.40
12977;DHT22;6553;48.412;9.514;2022-11-15T04:01:20;17.50;77.30
12977;DHT22;6553;48.412;9.514;2022-11-15T04:04:04;17.50;78.00
12977;DHT22;6553;48.412;9.514;2022-11-15T04:06:48;17.50;77.50
12977;DHT22;6553;48.412;9.514;2022-11-15T04:09:32;17.50;77.50
12977;DHT22;6553;48.412;9.514;2022-11-15T04:12:16;17.50;77.50
12977;DHT22;6553;48.412;9.514;2022-11-15T04:15:20;17.50;77.50
12977;DHT22;6553;48.412;9.514;2022-11-15T04:18:06;17.50;77.30
12977;DHT22;6553;48.412;9.514;2022-11-15T04:20:51;17.50;77.40
12977;DHT22;6553;48.412;9.514;2022-11-15T04:23:53;17.50;77.50
12977;DHT22;6553;48.412;9.514;2022-11-15T04:26:56;17.50;77.50
12977;DHT22;6553;48.412;9.514;2022-11-15T04:29:40;17.50;77.40
12977;DHT22;6553;48.412;9.514;2022-11-15T04:32:24;17.50;77.30
12977;DHT22;6553;48.412;9.514;2022-11-15T04:35:08;17.50;77.40
12977;DHT22;6553;48.412;9.514;2022-11-15T04:37:53;17.50;77.40
12977;DHT22;6553;48.412;9.514;2022-11-15T04:40:38;17.50;77.40
12977;DHT22;6553;48.412;9.514;2022-11-15T04:43:22;17.50;77.30
12977;DHT22;6553;48.412;9.514;2022-11-15T04:46:07;17.50;77.30
12977;DHT22;6553;48.412;9.514;2022-11-15T04:48:52;17.50;77.40
12977;DHT22;6553;48.412;9.514;2022-11-15T04:51:37;17.50;77.30
12977;DHT22;6553;48.412;9.514;2022-11-15T04:54:22;17.50;77.50
12977;DHT22;6553;48.412;9.514;2022-11-15T04:57:06;17.50;77.40
12977;DHT22;6553;48.412;9.514;2022-11-15T04:59:50;17.50;77.30
12977;DHT22;6553;48.412;9.514;2022-11-15T05:02:35;17.50;77.30
12977;DHT22;6553;48.412;9.514;2022-11-15T05:05:38;17.50;77.40
12977;DHT22;6553;48.412;9.514;2022-11-15T05:08:22;17.50;77.40
12977;DHT22;6553;48.412;9.514;2022-11-15T05:11:06;17.50;77.30
12977;DHT22;6553;48.412;9.514;2022-11-15T05:13:50;17.50;77.30
12977;DHT22;6553;48.412;9.514;2022-11-15T05:16:34;17.50;77.30
12977;DHT22;6553;48.412;9.514;2022-11-15T05:19:19;17.50;77.40
12977;DHT22;6553;48.412;9.514;2022-11-15T05:22:03;17.50;77.40
12977;DHT22;6553;48.412;9.514;2022-11-15T05:24:47;17.50;77.40
12977;DHT22;6553;48.412;9.514;2022-11-15T05:27:32;17.50;77.40
12977;DHT22;6553;48.412;9.514;2022-11-15T05:30:17;17.50;77.50
12977;DHT22;6553;48.412;9.514;2022-11-15T05:33:02;17.50;77.30
12977;DHT22;6553;48.412;9.514;2022-11-15T05:35:50;17.50;77.30
12977;DHT22;6553;48.412;9.514;2022-11-15T05:38:38;17.50;77.40
12977;DHT22;6553;48.412;9.514;2022-11-15T05:41:35;17.50;77.50
12977;DHT22;6553;48.412;9.514;2022-11-15T05:44:23;17.50;77.40
12977;DHT22;6553;48.412;9.514;2022-11-15T05:47:14;17.50;77.40
12977;DHT22;6553;48.412;9.514;2022-11-15T05:50:01;17.50;77.30
12977;DHT22;6553;48.412;9.514;2022-11-15T05:52:47;17.50;77.40
12977;DHT22;6553;48.412;9.514;2022-11-15T05:55:32;17.50;77.40
12977;DHT22;6553;48.412;9.514;2022-11-15T05:58:17;17.50;77.30
12977;DHT22;6553;48.412;9.514;2022-11-15T06:01:03;17.50;77.30
12977;DHT22;6553;48.412;9.514;2022-11-15T06:03:48;17.50;77.30
12977;DHT22;6553;48.412;9.514;2022-11-15T06:06:33;17.50;77.40
12977;DHT22;6553;48.412;9.514;2022-11-15T06:09:16;17.50;77.50
12977;DHT22;6553;48.412;9.514;2022-11-15T06:12:01;17.50;77.40
12977;DHT22;6553;48.412;9.514;2022-11-15T06:14:45;17.50;77.30
12977;DHT22;6553;48.412;9.514;2022-11-15T06:17:29;17.50;77.30
12977;DHT22;6553;48.412;9.514;2022-11-15T06:20:13;17.50;77.30
12977;DHT22;6553;48.412;9.514;2022-11-15T06:22:58;17.50;77.40
12977;DHT22;6553;48.412;9.514;2022-11-15T06:25:43;17.50;77.40
12977;DHT22;6553;48.412;9.514;2022-11-15T06:28:29;17.50;77.30
12977;DHT22;6553;48.412;9.514;2022-11-15T06:31:14;17.50;77.30
12977;DHT22;6553;48.412;9.514;2022-11-15T06:33:58;17.50;77.30
12977;DHT22;6553;48.412;9.514;2022-11-15T06:36:43;17.50;77.20
12977;DHT22;6553;48.412;9.514;2022-11-15T06:39:27;17.50;77.30
12977;DHT22;6553;48.412;9.514;2022-11-15T06:42:11;17.50;77.20
12977;DHT22;6553;48.412;9.514;2022-11-15T06:44:55;17.50;77.20
12977;DHT22;6553;48.412;9.514;2022-11-15T06:47:45;17.50;77.20
12977;DHT22;6553;48.412;9.514;2022-11-15T06:50:30;17.50;77.10
12977;DHT22;6553;48.412;9.514;2022-11-15T06:53:15;17.50;77.20
12977;DHT22;6553;48.412;9.514;2022-11-15T06:56:00;17.50;77.20
12977;DHT22;6553;48.412;9.514;2022-11-15T06:58:45;17.50;77.10
12977;DHT22;6553;48.412;9.514;2022-11-15T07:01:29;17.50;77.10
12977;DHT22;6553;48.412;9.514;2022-11-15T07:04:13;17.50;77.00
12977;DHT22;6553;48.412;9.514;2022-11-15T07:06:57;17.50;77.10
12977;DHT22;6553;48.412;9.514;2022-11-15T07:09:41;17.50;77.10
12977;DHT22;6553;48.412;9.514;2022-11-15T07:12:26;17.50;77.20
12977;DHT22;6553;48.412;9.514;2022-11-15T07:15:10;17.50;77.00
12977;DHT22;6553;48.412;9.514;2022-11-15T07:17:54;17.50;77.00
12977;DHT22;6553;48.412;9.514;2022-11-15T07:20:38;17.50;76.90
12977;DHT22;6553;48.412;9.514;2022-11-15T07:23:23;17.50;77.00
12977;DHT22;6553;48.412;9.514;2022-11-15T07:26:08;17.50;77.00
12977;DHT22;6553;48.412;9.514;2022-11-15T07:28:52;17.50;77.10
12977;DHT22;6553;48.412;9.514;2022-11-15T07:31:37;17.50;76.90
12977;DHT22;6553;48.412;9.514;2022-11-15T07:34:22;17.50;76.90
12977;DHT22;6553;48.412;9.514;2022-11-15T07:37:08;17.50;76.80
12977;DHT22;6553;48.412;9.514;2022-11-15T07:39:52;17.50;76.80
12977;DHT22;6553;48.412;9.514;2022-11-15T07:42:36;17.50;76.90
12977;DHT22;6553;48.412;9.514;2022-11-15T07:45:45;17.50;76.80
12977;DHT22;6553;48.412;9.514;2022-11-15T07:48:30;17.50;76.80
12977;DHT22;6553;48.412;9.514;2022-11-15T07:51:15;17.50;76.80
12977;DHT22;6553;48.412;9.514;2022-11-15T07:54:00;17.50;76.80
12977;DHT22;6553;48.412;9.514;2022-11-15T07:56:45;17.50;76.70
12977;DHT22;6553;48.412;9.514;2022-11-15T07:59:29;17.60;76.80
12977;DHT22;6553;48.412;9.514;2022-11-15T08:02:14;17.60;76.70
12977;DHT22;6553;48.412;9.514;2022-11-15T08:05:00;17.50;76.60
12977;DHT22;6553;48.412;9.514;2022-11-15T08:07:44;17.50;76.70
12977;DHT22;6553;48.412;9.514;2022-11-15T08:10:29;17.50;76.70
12977;DHT22;6553;48.412;9.514;2022-11-15T08:13:13;17.50;76.70
12977;DHT22;6553;48.412;9.514;2022-11-15T08:15:59;17.60;76.80
12977;DHT22;6553;48.412;9.514;2022-11-15T08:18:44;17.50;76.70
12977;DHT22;6553;48.412;9.514;2022-11-15T08:21:29;17.50;76.60
12977;DHT22;6553;48.412;9.514;2022-11-15T08:24:13;17.50;76.70
12977;DHT22;6553;48.412;9.514;2022-11-15T08:26:58;17.50;76.70
12977;DHT22;6553;48.412;9.514;2022-11-15T08:29:43;17.60;76.80
12977;DHT22;6553;48.412;9.514;2022-11-15T08:32:28;17.60;76.80
12977;DHT22;6553;48.412;9.514;2022-11-15T08:35:13;17.60;76.80
12977;DHT22;6553;48.412;9.514;2022-11-15T08:37:58;17.60;76.80
12977;DHT22;6553;48.412;9.514;2022-11-15T08:40:42;17.60;76.80
12977;DHT22;6553;48.412;9.514;2022-11-15T08:43:26;17.60;76.70
12977;DHT22;6553;48.412;9.514;2022-11-15T08:46:12;17.60;76.80
12977;DHT22;6553;48.412;9.514;2022-11-15T08:48:57;17.60;76.80
12977;DHT22;6553;48.412;9.514;2022-11-15T08:51:42;17.60;76.80
12977;DHT22;6553;48.412;9.514;2022-11-15T08:54:26;17.60;76.70
12977;DHT22;6553;48.412;9.514;2022-11-15T08:57:11;17.60;76.80
12977;DHT22;6553;48.412;9.514;2022-11-15T08:59:56;17.60;76.80
12977;DHT22;6553;48.412;9.514;2022-11-15T09:02:41;17.60;76.80
12977;DHT22;6553;48.412;9.514;2022-11-15T09:05:26;17.60;76.80
12977;DHT22;6553;48.412;9.514;2022-11-15T09:08:10;17.60;76.80
12977;DHT22;6553;48.412;9.514;2022-11-15T09:10:56;17.60;76.80
12977;DHT22;6553;48.412;9.514;2022-11-15T09:13:41;17.60;76.80
12977;DHT22;6553;48.412;9.514;2022-11-15T09:16:26;17.60;76.80
12977;DHT22;6553;48.412;9.514;2022-11-15T09:19:11;17.60;76.80
12977;DHT22;6553;48.412;9.514;2022-11-15T09:21:55;17.60;76.70
12977;DHT22;6553;48.412;9.514;2022-11-15T09:24:39;17.70;76.80
12977;DHT22;6553;48.412;9.514;2022-11-15T09:27:28;17.70;76.70
12977;DHT22;6553;48.412;9.514;2022-11-15T09:30:13;17.70;76.90
12977;DHT22;6553;48.412;9.514;2022-11-15T09:32:57;17.70;76.90
12977;DHT22;6553;48.412;9.514;2022-11-15T09:35:41;17.70;76.80
12977;DHT22;6553;48.412;9.514;2022-11-15T09:38:26;17.70;76.80
12977;DHT22;6553;48.412;9.514;2022-11-15T09:50:51;17.70;76.90
12977;DHT22;6553;48.412;9.514;2022-11-15T09:53:34;17.70;76.80
12977;DHT22;6553;48.412;9.514;2022-11-15T09:56:16;17.70;76.80
12977;DHT22;6553;48.412;9.514;2022-11-15T09:59:10;17.70;76.80
12977;DHT22;6553;48.412;9.514;2022-11-15T10:05:23;17.70;76.70
12977;DHT22;6553;48.412;9.514;2022-11-15T10:08:25;17.70;76.80
12977;DHT22;6553;48.412;9.514;2022-11-15T10:11:03;17.70;76.80
12977;DHT22;6553;48.412;9.514;2022-11-15T10:13:34;17.70;76.90
12977;DHT22;6553;48.412;9.514;2022-11-15T10:16:43;17.70;76.80
12977;DHT22;6553;48.412;9.514;2022-11-15T10:28:09;17.80;76.90
12977;DHT22;6553;48.412;9.514;2022-11-15T10:30:41;17.80;76.90
12977;DHT22;6553;48.412;9.514;2022-11-15T10:36:18;17.80;77.30
12977;DHT22;6553;48.412;9.514;2022-11-15T10:46:48;17.80;77.00
12977;DHT22;6553;48.412;9.514;2022-11-15T10:49:32;17.80;77.00
12977;DHT22;6553;48.412;9.514;2022-11-15T10:52:00;17.80;77.00
12977;DHT22;6553;48.412;9.514;2022-11-15T10:57:38;17.80;77.10
12977;DHT22;6553;48.412;9.514;2022-11-15T11:02:58;17.80;77.10
12977;DHT22;6553;48.412;9.514;2022-11-15T11:05:37;17.80;77.00
12977;DHT22;6553;48.412;9.514;2022-11-15T11:10:37;17.80;77.10
12977;DHT22;6553;48.412;9.514;2022-11-15T11:13:14;17.80;77.10
12977;DHT22;6553;48.412;9.514;2022-11-15T11:15:51;17.80;77.20
12977;DHT22;6553;48.412;9.514;2022-11-15T11:18:31;17.80;77.30
12977;DHT22;6553;48.412;9.514;2022-11-15T11:21:11;17.80;77.30
12977;DHT22;6553;48.412;9.514;2022-11-15T11:23:59;17.80;77.10
12977;DHT22;6553;48.412;9.514;2022-11-15T11:27:13;17.80;77.20
12977;DHT22;6553;48.412;9.514;2022-11-15T11:30:28;17.80;77.30
12977;DHT22;6553;48.412;9.514;2022-11-15T11:36:11;17.80;77.30
12977;DHT22;6553;48.412;9.514;2022-11-15T11:39:00;17.80;77.20
12977;DHT22;6553;48.412;9.514;2022-11-15T11:44:28;17.80;77.60
12977;DHT22;6553;48.412;9.514;2022-11-15T11:47:11;17.80;77.40
12977;DHT22;6553;48.412;9.514;2022-11-15T11:50:00;17.90;77.50
12977;DHT22;6553;48.412;9.514;2022-11-15T11:52:44;17.80;77.40
12977;DHT22;6553;48.412;9.514;2022-11-15T11:55:34;17.90;77.60
12977;DHT22;6553;48.412;9.514;2022-11-15T11:58:44;17.90;77.70
12977;DHT22;6553;48.412;9.514;2022-11-15T12:01:22;17.90;77.50
12977;DHT22;6553;48.412;9.514;2022-11-15T12:09:58;17.90;77.60
12977;DHT22;6553;48.412;9.514;2022-11-15T12:12:34;17.90;77.70
12977;DHT22;6553;48.412;9.514;2022-11-15T12:15:12;17.90;77.70
12977;DHT22;6553;48.412;9.514;2022-11-15T12:17:42;17.90;77.60
12977;DHT22;6553;48.412;9.514;2022-11-15T12:20:19;17.90;78.30
12977;DHT22;6553;48.412;9.514;2022-11-15T12:22:58;17.80;77.30
12977;DHT22;6553;48.412;9.514;2022-11-15T12:36:49;17.90;77.70
12977;DHT22;6553;48.412;9.514;2022-11-15T12:39:16;17.80;77.50
12977;DHT22;6553;48.412;9.514;2022-11-15T12:47:22;17.90;77.60
12977;DHT22;6553;48.412;9.514;2022-11-15T12:49:50;17.90;77.40
12977;DHT22;6553;48.412;9.514;2022-11-15T12:52:16;17.90;77.70
12977;DHT22;6553;48.412;9.514;2022-11-15T12:59:55;17.90;77.50
12977;DHT22;6553;48.412;9.514;2022-11-15T13:02:36;17.90;77.40
12977;DHT22;6553;48.412;9.514;2022-11-15T13:17:53;17.90;77.70
12977;DHT22;6553;48.412;9.514;2022-11-15T13:20:30;17.90;77.40
12977;DHT22;6553;48.412;9.514;2022-11-15T13:23:09;17.90;77.50
12977;DHT22;6553;48.412;9.514;2022-11-15T13:28:43;17.90;77.40
12977;DHT22;6553;48.412;9.514;2022-11-15T13:33:56;17.90;77.60
12977;DHT22;6553;48.412;9.514;2022-11-15T13:36:31;17.90;77.60
12977;DHT22;6553;48.412;9.514;2022-11-15T13:39:00;17.90;77.60
12977;DHT22;6553;48.412;9.514;2022-11-15T13:41:31;17.90;77.60
12977;DHT22;6553;48.412;9.514;2022-11-15T13:44:00;17.90;77.50
12977;DHT22;6553;48.412;9.514;2022-11-15T13:46:28;17.90;77.60
12977;DHT22;6553;48.412;9.514;2022-11-15T13:49:05;17.90;77.60
12977;DHT22;6553;48.412;9.514;2022-11-15T13:51:37;17.90;77.60
12977;DHT22;6553;48.412;9.514;2022-11-15T13:54:17;17.90;77.60
12977;DHT22;6553;48.412;9.514;2022-11-15T13:56:49;17.90;77.50
12977;DHT22;6553;48.412;9.514;2022-11-15T13:59:26;17.90;78.30
12977;DHT22;6553;48.412;9.514;2022-11-15T14:01:55;17.90;77.70
12977;DHT22;6553;48.412;9.514;2022-11-15T14:04:25;17.90;77.80
12977;DHT22;6553;48.412;9.514;2022-11-15T14:06:59;17.90;78.00
12977;DHT22;6553;48.412;9.514;2022-11-15T14:09:32;17.90;77.90
12977;DHT22;6553;48.412;9.514;2022-11-15T14:12:34;17.90;77.90
12977;DHT22;6553;48.412;9.514;2022-11-15T14:15:39;17.90;78.00
12977;DHT22;6553;48.412;9.514;2022-11-15T14:18:05;17.90;78.10
12977;DHT22;6553;48.412;9.514;2022-11-15T14:20:38;17.90;78.00
12977;DHT22;6553;48.412;9.514;2022-11-15T14:23:25;17.90;78.10
12977;DHT22;6553;48.412;9.514;2022-11-15T14:25:57;17.90;78.10
12977;DHT22;6553;48.412;9.514;2022-11-15T14:30:51;17.90;78.30
12977;DHT22;6553;48.412;9.514;2022-11-15T14:33:34;17.90;78.30
12977;DHT22;6553;48.412;9.514;2022-11-15T14:36:12;17.90;78.30
12977;DHT22;6553;48.412;9.514;2022-11-15T14:38:40;17.90;78.40
12977;DHT22;6553;48.412;9.514;2022-11-15T14:41:10;17.90;78.40
12977;DHT22;6553;48.412;9.514;2022-11-15T14:43:42;17.80;78.40
12977;DHT22;6553;48.412;9.514;2022-11-15T14:46:08;17.90;78.50
12977;DHT22;6553;48.412;9.514;2022-11-15T14:48:33;17.90;78.50
12977;DHT22;6553;48.412;9.514;2022-11-15T14:51:00;17.90;78.50
12977;DHT22;6553;48.412;9.514;2022-11-15T14:53:25;17.90;78.50
12977;DHT22;6553;48.412;9.514;2022-11-15T14:55:51;17.90;78.50
12977;DHT22;6553;48.412;9.514;2022-11-15T14:58:17;17.90;78.80
12977;DHT22;6553;48.412;9.514;2022-11-15T15:00:42;17.90;78.80
12977;DHT22;6553;48.412;9.514;2022-11-15T15:03:09;17.90;79.00
12977;DHT22;6553;48.412;9.514;2022-11-15T15:05:40;17.90;79.10
12977;DHT22;6553;48.412;9.514;2022-11-15T15:08:09;17.90;79.20
12977;DHT22;6553;48.412;9.514;2022-11-15T15:10:41;17.90;79.20
12977;DHT22;6553;48.412;9.514;2022-11-15T15:13:23;17.90;79.20
12977;DHT22;6553;48.412;9.514;2022-11-15T15:15:50;17.90;79.20
12977;DHT22;6553;48.412;9.514;2022-11-15T15:18:17;17.90;79.30
12977;DHT22;6553;48.412;9.514;2022-11-15T15:20:45;17.90;79.30
12977;DHT22;6553;48.412;9.514;2022-11-15T15:23:23;17.90;79.30
12977;DHT22;6553;48.412;9.514;2022-11-15T15:25:50;17.90;79.20
12977;DHT22;6553;48.412;9.514;2022-11-15T15:28:18;17.90;79.30
12977;DHT22;6553;48.412;9.514;2022-11-15T15:30:43;17.90;79.40
12977;DHT22;6553;48.412;9.514;2022-11-15T15:33:09;17.90;79.40
12977;DHT22;6553;48.412;9.514;2022-11-15T15:35:35;17.90;79.40
12977;DHT22;6553;48.412;9.514;2022-11-15T15:38:01;17.90;79.40
12977;DHT22;6553;48.412;9.514;2022-11-15T15:40:29;17.90;79.40
12977;DHT22;6553;48.412;9.514;2022-11-15T15:42:57;17.90;79.40
12977;DHT22;6553;48.412;9.514;2022-11-15T15:45:25;17.80;79.30
12977;DHT22;6553;48.412;9.514;2022-11-15T15:47:52;17.90;79.40
12977;DHT22;6553;48.412;9.514;2022-11-15T15:50:27;17.90;79.40
12977;DHT22;6553;48.412;9.514;2022-11-15T15:52:57;17.90;79.50
12977;DHT22;6553;48.412;9.514;2022-11-15T15:55:25;17.90;80.20
12977;DHT22;6553;48.412;9.514;2022-11-15T15:57:51;17.90;79.60
12977;DHT22;6553;48.412;9.514;2022-11-15T16:00:18;17.90;79.50
12977;DHT22;6553;48.412;9.514;2022-11-15T16:02:45;17.90;79.60
12977;DHT22;6553;48.412;9.514;2022-11-15T16:05:11;17.90;79.70
12977;DHT22;6553;48.412;9.514;2022-11-15T16:07:37;17.90;79.70
12977;DHT22;6553;48.412;9.514;2022-11-15T16:10:26;17.90;79.80
12977;DHT22;6553;48.412;9.514;2022-11-15T16:12:54;17.90;79.80
12977;DHT22;6553;48.412;9.514;2022-11-15T16:15:23;17.90;79.90
12977;DHT22;6553;48.412;9.514;2022-11-15T16:20:30;17.90;79.80
12977;DHT22;6553;48.412;9.514;2022-11-15T16:22:55;17.90;79.80
12977;DHT22;6553;48.412;9.514;2022-11-15T16:25:21;17.90;79.90
12977;DHT22;6553;48.412;9.514;2022-11-15T16:27:48;17.90;79.90
12977;DHT22;6553;48.412;9.514;2022-11-15T16:30:19;17.90;80.70
12977;DHT22;6553;48.412;9.514;2022-11-15T16:32:46;17.90;79.90
12977;DHT22;6553;48.412;9.514;2022-11-15T16:35:14;17.90;80.00
12977;DHT22;6553;48.412;9.514;2022-11-15T16:37:41;17.90;80.00
12977;DHT22;6553;48.412;9.514;2022-11-15T16:40:20;17.90;80.00
12977;DHT22;6553;48.412;9.514;2022-11-15T16:42:56;17.80;79.90
12977;DHT22;6553;48.412;9.514;2022-11-15T16:45:23;17.80;80.00
12977;DHT22;6553;48.412;9.514;2022-11-15T16:47:49;17.90;80.10
12977;DHT22;6553;48.412;9.514;2022-11-15T16:50:26;17.90;80.10
12977;DHT22;6553;48.412;9.514;2022-11-15T16:52:56;17.90;80.00
12977;DHT22;6553;48.412;9.514;2022-11-15T16:55:24;17.90;80.10
12977;DHT22;6553;48.412;9.514;2022-11-15T16:57:52;17.90;80.10
12977;DHT22;6553;48.412;9.514;2022-11-15T17:00:19;17.90;80.00
12977;DHT22;6553;48.412;9.514;2022-11-15T17:02:48;17.80;80.00
12977;DHT22;6553;48.412;9.514;2022-11-15T17:05:20;17.90;80.20
12977;DHT22;6553;48.412;9.514;2022-11-15T17:07:48;17.90;80.30
12977;DHT22;6553;48.412;9.514;2022-11-15T17:10:22;17.90;80.20
12977;DHT22;6553;48.412;9.514;2022-11-15T17:12:49;17.90;80.40
12977;DHT22;6553;48.412;9.514;2022-11-15T17:15:16;17.90;80.30
12977;DHT22;6553;48.412;9.514;2022-11-15T17:17:42;17.80;81.00
12977;DHT22;6553;48.412;9.514;2022-11-15T17:20:16;17.90;80.40
12977;DHT22;6553;48.412;9.514;2022-11-15T17:22:43;17.90;80.40
12977;DHT22;6553;48.412;9.514;2022-11-15T17:25:09;17.90;80.50
12977;DHT22;6553;48.412;9.514;2022-11-15T17:27:35;17.80;80.40
12977;DHT22;6553;48.412;9.514;2022-11-15T17:30:01;17.80;80.40
12977;DHT22;6553;48.412;9.514;2022-11-15T17:32:27;17.90;80.50
12977;DHT22;6553;48.412;9.514;2022-11-15T17:34:52;17.80;80.40
12977;DHT22;6553;48.412;9.514;2022-11-15T17:37:18;17.80;80.40
12977;DHT22;6553;48.412;9.514;2022-11-15T17:39:44;17.90;80.60
12977;DHT22;6553;48.412;9.514;2022-11-15T17:42:10;17.90;80.60
12977;DHT22;6553;48.412;9.514;2022-11-15T17:44:35;17.80;80.60
12977;DHT22;6553;48.412;9.514;2022-11-15T17:47:01;17.90;80.60
12977;DHT22;6553;48.412;9.514;2022-11-15T17:49:27;17.90;80.60
12977;DHT22;6553;48.412;9.514;2022-11-15T17:51:53;17.90;80.60
12977;DHT22;6553;48.412;9.514;2022-11-15T17:54:18;17.80;80.70
12977;DHT22;6553;48.412;9.514;2022-11-15T17:56:44;17.80;80.70
12977;DHT22;6553;48.412;9.514;2022-11-15T17:59:10;17.80;80.70
12977;DHT22;6553;48.412;9.514;2022-11-15T18:01:37;17.80;80.70
12977;DHT22;6553;48.412;9.514;2022-11-15T18:04:06;17.80;80.70
12977;DHT22;6553;48.412;9.514;2022-11-15T18:06:34;17.80;80.70
12977;DHT22;6553;48.412;9.514;2022-11-15T18:09:02;17.80;80.70
12977;DHT22;6553;48.412;9.514;2022-11-15T18:11:34;17.80;80.80
12977;DHT22;6553;48.412;9.514;2022-11-15T18:14:07;17.90;81.00
12977;DHT22;6553;48.412;9.514;2022-11-15T18:16:37;17.80;80.90
12977;DHT22;6553;48.412;9.514;2022-11-15T18:19:05;17.80;80.80
12977;DHT22;6553;48.412;9.514;2022-11-15T18:21:36;17.80;80.80
12977;DHT22;6553;48.412;9.514;2022-11-15T18:24:31;17.80;80.90
12977;DHT22;6553;48.412;9.514;2022-11-15T18:27:00;17.90;80.90
12977;DHT22;6553;48.412;9.514;2022-11-15T18:29:27;17.80;80.90
12977;DHT22;6553;48.412;9.514;2022-11-15T18:31:53;17.80;80.90
12977;DHT22;6553;48.412;9.514;2022-11-15T18:34:24;17.80;80.90
12977;DHT22;6553;48.412;9.514;2022-11-15T18:36:53;17.80;80.90
12977;DHT22;6553;48.412;9.514;2022-11-15T18:39:19;17.90;81.10
12977;DHT22;6553;48.412;9.514;2022-11-15T18:41:45;17.90;81.10
12977;DHT22;6553;48.412;9.514;2022-11-15T18:44:11;17.80;81.00
12977;DHT22;6553;48.412;9.514;2022-11-15T18:46:37;17.90;81.20
12977;DHT22;6553;48.412;9.514;2022-11-15T18:49:04;17.80;81.00
12977;DHT22;6553;48.412;9.514;2022-11-15T18:51:34;17.90;81.20
12977;DHT22;6553;48.412;9.514;2022-11-15T18:54:02;17.80;81.10
12977;DHT22;6553;48.412;9.514;2022-11-15T18:56:30;17.80;81.10
12977;DHT22;6553;48.412;9.514;2022-11-15T18:58:59;17.90;81.30
12977;DHT22;6553;48.412;9.514;2022-11-15T19:01:31;17.80;81.00
12977;DHT22;6553;48.412;9.514;2022-11-15T19:04:03;17.90;81.20
12977;DHT22;6553;48.412;9.514;2022-11-15T19:06:42;17.80;81.10
12977;DHT22;6553;48.412;9.514;2022-11-15T19:09:10;17.80;81.20